createdAt,value
2023-04-29T00:00:27.809Z,20.45
2023-04-29T00:02:51.712Z,18.20
2023-04-29T00:05:15.770Z,19.95
2023-04-29T00:07:41.008Z,21.20
2023-04-29T00:10:05.026Z,16.52
2023-04-29T00:12:30.398Z,15.90
2023-04-29T00:14:53.948Z,13.68
2023-04-29T00:17:17.673Z,15.13
2023-04-29T00:19:41.335Z,15.43
2023-04-29T00:22:04.968Z,13.27
2023-04-29T00:24:30.051Z,14.70
2023-04-29T00:26:53.566Z,12.85
2023-04-29T00:29:17.245Z,11.48
2023-04-29T00:31:40.768Z,13.38
2023-04-29T00:34:04.446Z,15.10
2023-04-29T00:36:28.511Z,16.13
2023-04-29T00:38:52.045Z,13.38
2023-04-29T00:41:17.034Z,16.75
2023-04-29T00:43:40.846Z,11.63
2023-04-29T00:46:04.509Z,15.88
2023-04-29T00:48:28.099Z,10.98
2023-04-29T00:50:51.982Z,13.05
2023-04-29T00:53:15.786Z,13.75
2023-04-29T00:55:40.072Z,13.32
2023-04-29T00:58:05.124Z,12.07
2023-04-29T01:00:29.719Z,15.70
2023-04-29T01:02:57.083Z,16.40
2023-04-29T01:05:20.814Z,16.70
2023-04-29T01:07:57.952Z,16.90
2023-04-29T01:10:29.263Z,15.57
2023-04-29T01:13:01.900Z,15.80
2023-04-29T01:15:33.272Z,15.00
2023-04-29T01:18:01.909Z,21.52
2023-04-29T01:20:27.547Z,16.15
2023-04-29T01:22:51.292Z,15.45
2023-04-29T01:25:16.668Z,17.20
2023-04-29T01:28:30.352Z,16.67
2023-04-29T01:31:03.355Z,17.17
2023-04-29T01:33:36.238Z,19.80
2023-04-29T01:36:12.126Z,17.17
2023-04-29T01:38:43.375Z,16.20
2023-04-29T01:41:16.103Z,18.40
2023-04-29T01:43:42.238Z,27.75
2023-04-29T01:46:19.725Z,20.08
2023-04-29T01:48:43.741Z,20.15
2023-04-29T01:51:07.750Z,25.63
2023-04-29T01:53:31.575Z,21.98
2023-04-29T01:55:55.188Z,22.17
2023-04-29T01:58:40.108Z,19.88
2023-04-29T02:01:23.031Z,23.17
2023-04-29T02:03:46.826Z,25.08
2023-04-29T02:06:12.382Z,23.75
2023-04-29T02:08:36.152Z,23.45
2023-04-29T02:11:01.001Z,21.48
2023-04-29T02:13:39.736Z,25.20
2023-04-29T02:16:10.496Z,26.40
2023-04-29T02:18:36.593Z,25.83
2023-04-29T02:21:02.769Z,27.92
2023-04-29T02:23:30.376Z,22.58
2023-04-29T02:25:54.197Z,27.15
2023-04-29T02:28:17.904Z,27.27
2023-04-29T02:30:42.864Z,29.48
2023-04-29T02:33:08.396Z,24.90
2023-04-29T02:35:32.334Z,24.15
2023-04-29T02:37:56.466Z,24.98
2023-04-29T02:40:20.109Z,25.17
2023-04-29T02:42:43.757Z,28.88
2023-04-29T02:45:09.345Z,26.70
2023-04-29T02:47:34.407Z,23.83
2023-04-29T02:49:58.003Z,26.02
2023-04-29T02:52:21.601Z,30.83
2023-04-29T02:54:45.965Z,25.50
2023-04-29T02:57:09.593Z,27.85
2023-04-29T02:59:33.132Z,24.13
2023-04-29T03:01:57.051Z,24.67
2023-04-29T03:04:22.352Z,29.45
2023-04-29T03:06:46.149Z,27.73
2023-04-29T03:09:10.280Z,26.58
2023-04-29T03:11:33.832Z,29.13
2023-04-29T03:13:57.919Z,28.90
2023-04-29T03:16:22.154Z,31.40
2023-04-29T03:18:46.258Z,31.48
2023-04-29T03:21:11.453Z,30.58
2023-04-29T03:23:35.005Z,29.38
2023-04-29T03:26:00.734Z,31.70
2023-04-29T03:28:24.384Z,34.55
2023-04-29T03:30:48.318Z,36.33
2023-04-29T03:33:11.866Z,32.38
2023-04-29T03:35:35.619Z,33.47
2023-04-29T03:38:09.284Z,33.30
2023-04-29T03:40:34.482Z,33.00
2023-04-29T03:42:58.128Z,36.03
2023-04-29T03:45:21.955Z,41.45
2023-04-29T03:47:45.617Z,39.95
2023-04-29T03:50:10.250Z,46.92
2023-04-29T03:52:36.428Z,38.85
2023-04-29T03:55:07.292Z,37.00
2023-04-29T03:57:31.152Z,40.85
2023-04-29T03:59:55.273Z,39.00
2023-04-29T04:02:20.662Z,39.97
2023-04-29T04:04:44.532Z,37.92
2023-04-29T04:07:08.258Z,41.95
2023-04-29T04:09:50.499Z,39.78
2023-04-29T04:12:15.740Z,43.00
2023-04-29T04:14:39.285Z,40.28
2023-04-29T04:17:02.940Z,41.55
2023-04-29T04:19:27.133Z,49.65
2023-04-29T04:21:50.962Z,45.80
2023-04-29T04:24:15.042Z,46.92
2023-04-29T04:26:39.096Z,47.25
2023-04-29T04:29:14.244Z,48.03
2023-04-29T04:31:56.200Z,48.83
2023-04-29T04:34:21.012Z,48.88
2023-04-29T04:36:47.130Z,54.13
2023-04-29T04:39:10.793Z,49.20
2023-04-29T04:41:34.376Z,52.17
2023-04-29T04:44:00.287Z,48.10
2023-04-29T04:46:37.588Z,50.60
2023-04-29T04:49:08.278Z,51.95
2023-04-29T04:51:37.810Z,50.72
2023-04-29T04:54:01.394Z,54.92
2023-04-29T04:56:26.484Z,53.58
2023-04-29T04:58:50.091Z,54.80
2023-04-29T05:01:13.675Z,53.40
2023-04-29T05:03:38.939Z,61.00
2023-04-29T05:06:02.901Z,61.80
2023-04-29T05:08:27.670Z,58.78
2023-04-29T05:10:54.351Z,60.65
2023-04-29T05:13:18.510Z,56.67
2023-04-29T05:15:42.990Z,58.50
2023-04-29T05:18:06.873Z,49.30
2023-04-29T05:20:32.315Z,64.82
2023-04-29T05:22:58.046Z,63.53
2023-04-29T05:25:22.542Z,52.42
2023-04-29T05:27:46.323Z,62.78
2023-04-29T05:30:13.909Z,69.55
2023-04-29T05:32:37.707Z,61.08
2023-04-29T05:35:05.999Z,68.28
2023-04-29T05:37:32.630Z,59.30
2023-04-29T05:40:09.563Z,59.88
2023-04-29T05:42:33.350Z,57.72
2023-04-29T05:44:58.002Z,68.43
2023-04-29T05:47:21.690Z,64.25
2023-04-29T05:49:45.468Z,64.60
2023-04-29T05:52:09.421Z,67.10
2023-04-29T05:54:40.188Z,51.45
2023-04-29T05:57:04.484Z,56.40
2023-04-29T05:59:28.006Z,57.08
2023-04-29T06:01:52.239Z,62.67
2023-04-29T06:04:16.140Z,54.10
2023-04-29T06:06:58.965Z,51.67
2023-04-29T06:09:44.083Z,54.40
2023-04-29T06:12:08.037Z,55.38
2023-04-29T06:14:31.602Z,49.53
2023-04-29T06:16:55.876Z,48.40
2023-04-29T06:19:20.779Z,44.22
2023-04-29T06:21:45.298Z,44.78
2023-04-29T06:24:08.981Z,48.60
2023-04-29T06:26:34.099Z,46.17
2023-04-29T06:28:57.610Z,48.67
2023-04-29T06:31:23.075Z,44.80
2023-04-29T06:33:47.846Z,42.03
2023-04-29T06:36:12.964Z,43.65
2023-04-29T06:38:58.398Z,45.42
2023-04-29T06:41:37.991Z,45.03
2023-04-29T06:44:10.875Z,44.45
2023-04-29T06:46:44.078Z,45.95
2023-04-29T06:49:18.168Z,46.60
2023-04-29T06:51:42.858Z,42.15
2023-04-29T06:54:06.463Z,47.10
2023-04-29T06:56:30.102Z,46.78
2023-04-29T06:58:55.076Z,45.85
2023-04-29T07:01:18.640Z,51.67
2023-04-29T07:03:42.493Z,41.90
2023-04-29T07:06:06.312Z,43.10
2023-04-29T07:08:29.991Z,43.13
2023-04-29T07:10:57.712Z,43.95
2023-04-29T07:13:21.275Z,43.45
2023-04-29T07:15:47.890Z,45.95
2023-04-29T07:18:12.121Z,38.85
2023-04-29T07:20:38.557Z,39.97
2023-04-29T07:23:02.177Z,33.03
2023-04-29T07:25:25.949Z,35.42
2023-04-29T07:27:49.522Z,34.38
2023-04-29T07:30:13.469Z,29.48
2023-04-29T07:32:39.210Z,26.02
2023-04-29T07:35:02.858Z,26.98
2023-04-29T07:37:26.872Z,27.13
2023-04-29T07:39:50.550Z,26.05
2023-04-29T07:42:14.097Z,24.17
2023-04-29T07:44:38.644Z,25.13
2023-04-29T07:47:02.268Z,24.23
2023-04-29T07:49:27.321Z,24.30
2023-04-29T07:51:50.849Z,24.70
2023-04-29T07:54:14.521Z,22.25
2023-04-29T07:56:38.088Z,23.60
2023-04-29T07:59:02.251Z,23.58
2023-04-29T08:01:25.797Z,23.40
2023-04-29T08:03:49.645Z,25.10
2023-04-29T08:06:18.375Z,24.50
2023-04-29T08:08:42.571Z,23.10
2023-04-29T08:11:07.502Z,23.70
2023-04-29T08:13:34.222Z,20.85
2023-04-29T08:15:58.027Z,22.85
2023-04-29T08:18:22.448Z,21.08
2023-04-29T08:20:45.956Z,23.65
2023-04-29T08:23:11.561Z,25.83
2023-04-29T08:25:35.094Z,21.27
2023-04-29T08:27:58.675Z,22.08
2023-04-29T08:30:22.297Z,23.05
2023-04-29T08:32:46.167Z,22.05
2023-04-29T08:35:11.200Z,22.17
2023-04-29T08:37:34.786Z,21.40
2023-04-29T08:39:59.698Z,24.98
2023-04-29T08:42:36.380Z,27.45
2023-04-29T08:45:02.282Z,28.08
2023-04-29T08:47:25.929Z,29.73
2023-04-29T08:49:49.656Z,28.58
2023-04-29T08:52:13.174Z,31.35
2023-04-29T08:54:37.327Z,32.25
2023-04-29T08:57:02.828Z,32.22
2023-04-29T08:59:27.626Z,35.08
2023-04-29T09:01:54.438Z,36.28
2023-04-29T09:04:35.300Z,36.47
2023-04-29T09:07:00.739Z,36.00
2023-04-29T09:09:25.840Z,40.45
2023-04-29T09:11:49.445Z,39.28
2023-04-29T09:14:15.594Z,38.53
2023-04-29T09:16:39.262Z,41.45
2023-04-29T09:19:02.788Z,45.40
2023-04-29T09:21:28.267Z,48.70
2023-04-29T09:23:54.464Z,49.50
2023-04-29T09:26:18.533Z,50.03
2023-04-29T09:28:44.693Z,52.67
2023-04-29T09:31:09.673Z,54.65
2023-04-29T09:33:33.539Z,56.65
2023-04-29T09:35:57.162Z,60.95
2023-04-29T09:38:22.118Z,58.47
2023-04-29T09:40:57.268Z,60.60
2023-04-29T09:43:23.750Z,58.53
2023-04-29T09:45:49.332Z,61.70
2023-04-29T09:48:15.715Z,61.38
2023-04-29T09:50:40.676Z,61.03
2023-04-29T09:53:04.834Z,59.58
2023-04-29T09:55:29.311Z,55.28
2023-04-29T09:57:52.901Z,60.58
2023-04-29T10:00:16.666Z,59.45
2023-04-29T10:02:44.217Z,65.55
2023-04-29T10:05:10.946Z,60.45
2023-04-29T10:07:35.268Z,60.83
2023-04-29T10:09:58.783Z,56.15
2023-04-29T10:12:22.723Z,50.67
2023-04-29T10:14:55.176Z,51.10
2023-04-29T10:17:26.155Z,52.30
2023-04-29T10:19:55.578Z,51.35
2023-04-29T10:22:28.259Z,46.30
2023-04-29T10:24:53.882Z,41.97
2023-04-29T10:27:18.570Z,45.10
2023-04-29T10:29:44.774Z,41.53
2023-04-29T10:32:11.125Z,45.25
2023-04-29T10:34:35.636Z,43.70
2023-04-29T10:36:59.639Z,40.55
2023-04-29T10:39:34.873Z,40.35
2023-04-29T10:41:59.239Z,39.13
2023-04-29T10:44:24.105Z,37.63
2023-04-29T10:46:47.791Z,37.28
2023-04-29T10:49:12.866Z,38.30
2023-04-29T10:51:41.933Z,32.47
2023-04-29T10:54:10.652Z,35.65
2023-04-29T10:56:49.423Z,35.70
2023-04-29T10:59:17.169Z,31.75
2023-04-29T11:01:49.456Z,29.92
2023-04-29T11:04:13.252Z,30.25
2023-04-29T11:06:47.367Z,28.33
2023-04-29T11:09:14.668Z,30.17
2023-04-29T11:12:00.580Z,29.38
2023-04-29T11:14:27.866Z,29.35
2023-04-29T11:16:55.055Z,33.38
2023-04-29T11:19:18.919Z,31.73
2023-04-29T11:21:42.544Z,40.80
2023-04-29T11:24:08.162Z,23.42
2023-04-29T11:26:31.774Z,25.25
2023-04-29T11:28:59.399Z,22.08
2023-04-29T11:31:27.496Z,19.85
2023-04-29T11:33:52.536Z,31.02
2023-04-29T11:36:16.251Z,22.75
2023-04-29T11:38:42.205Z,24.67
2023-04-29T11:41:06.055Z,26.33
2023-04-29T11:43:29.759Z,28.23
2023-04-29T11:45:55.514Z,23.50
2023-04-29T11:48:20.072Z,22.73
2023-04-29T11:50:44.018Z,23.35
2023-04-29T11:53:07.756Z,23.13
2023-04-29T11:55:31.685Z,24.33
2023-04-29T11:57:55.430Z,19.70
2023-04-29T12:00:19.263Z,22.73
2023-04-29T12:02:49.058Z,25.98
2023-04-29T12:05:16.399Z,17.98
2023-04-29T12:07:42.033Z,20.52
2023-04-29T12:10:11.901Z,19.63
2023-04-29T12:12:37.346Z,19.90
2023-04-29T12:15:03.677Z,19.23
2023-04-29T12:17:27.689Z,20.38
2023-04-29T12:19:53.047Z,18.52
2023-04-29T12:22:16.627Z,17.08
2023-04-29T12:24:41.376Z,19.88
2023-04-29T12:27:05.901Z,15.80
2023-04-29T12:29:29.464Z,15.38
2023-04-29T12:31:53.344Z,17.58
2023-04-29T12:34:17.086Z,15.32
2023-04-29T12:36:43.797Z,13.57
2023-04-29T12:39:11.196Z,13.70
2023-04-29T12:41:39.310Z,14.27
2023-04-29T12:44:04.233Z,10.77
2023-04-29T12:46:27.811Z,10.45
2023-04-29T12:48:51.551Z,8.73
2023-04-29T12:51:15.278Z,11.43
2023-04-29T12:53:40.929Z,10.13
2023-04-29T12:56:04.813Z,10.75
2023-04-29T12:58:31.197Z,8.40
2023-04-29T13:00:54.777Z,9.90
2023-04-29T13:03:20.424Z,7.68
2023-04-29T13:05:48.601Z,10.05
2023-04-29T13:08:12.151Z,9.00
2023-04-29T13:10:37.362Z,8.70
2023-04-29T13:13:01.397Z,9.10
2023-04-29T13:15:24.993Z,13.60
2023-04-29T13:17:48.598Z,8.35
2023-04-29T13:20:13.542Z,9.13
2023-04-29T13:22:37.448Z,10.20
2023-04-29T13:25:01.256Z,10.38
2023-04-29T13:27:26.436Z,11.27
2023-04-29T13:29:50.413Z,11.13
2023-04-29T13:32:14.236Z,12.93
2023-04-29T13:34:38.034Z,16.25
2023-04-29T13:37:01.820Z,14.55
2023-04-29T13:39:25.724Z,14.10
2023-04-29T13:41:49.413Z,15.95
2023-04-29T13:46:40.830Z,14.20
2023-04-29T13:49:31.927Z,14.85
2023-04-29T13:52:22.087Z,13.93
2023-04-29T14:02:21.728Z,20.25
2023-04-29T14:04:36.957Z,17.52
2023-04-29T14:07:00.773Z,14.70
2023-04-29T14:09:24.869Z,17.70
2023-04-29T14:11:48.536Z,14.35
2023-04-29T14:14:12.138Z,16.88
2023-04-29T14:16:37.248Z,16.80
2023-04-29T14:19:03.564Z,14.52
2023-04-29T14:21:28.075Z,12.30
2023-04-29T14:23:51.953Z,14.68
2023-04-29T14:28:42.315Z,13.00
2023-04-29T14:31:06.435Z,12.48
2023-04-29T14:33:31.453Z,11.80
2023-04-29T14:35:55.397Z,14.77
2023-04-29T14:38:19.041Z,10.82
2023-04-29T14:40:42.554Z,11.18
2023-04-29T14:43:06.695Z,10.73
2023-04-29T14:45:30.229Z,12.75
2023-04-29T14:47:53.823Z,8.68
2023-04-29T14:50:18.858Z,12.43
2023-04-29T14:52:42.571Z,13.48
2023-04-29T14:55:07.894Z,17.77
2023-04-29T14:57:31.636Z,8.90
2023-04-29T14:59:55.244Z,15.73
2023-04-29T15:02:18.825Z,9.75
2023-04-29T15:04:45.697Z,11.05
2023-04-29T15:07:11.128Z,9.48
2023-04-29T15:09:34.735Z,13.30
2023-04-29T15:11:58.348Z,12.13
2023-04-29T15:14:21.907Z,9.40
2023-04-29T15:16:46.029Z,11.50
2023-04-29T15:19:09.672Z,14.60
2023-04-29T15:21:33.657Z,9.45
2023-04-29T15:23:58.575Z,13.90
2023-04-29T15:26:22.624Z,10.40
2023-04-29T15:28:46.797Z,12.90
2023-04-29T15:31:10.441Z,12.50
2023-04-29T15:33:34.443Z,9.77
2023-04-29T15:35:58.184Z,10.90
2023-04-29T15:38:21.698Z,9.45
2023-04-29T15:40:46.682Z,9.48
2023-04-29T15:43:10.201Z,9.32
2023-04-29T15:45:34.425Z,8.88
2023-04-29T15:47:57.997Z,10.68
2023-04-29T15:50:21.937Z,11.88
2023-04-29T15:52:45.480Z,7.57
2023-04-29T15:55:09.716Z,8.32
2023-04-29T15:57:40.901Z,10.68
2023-04-29T16:00:05.291Z,9.73
2023-04-29T16:02:28.955Z,7.53
2023-04-29T16:04:52.662Z,7.82
2023-04-29T16:07:16.345Z,8.82
2023-04-29T16:09:40.077Z,11.40
2023-04-29T16:12:03.841Z,9.25
2023-04-29T16:14:30.017Z,10.15
2023-04-29T16:16:53.698Z,7.97
2023-04-29T16:19:17.488Z,10.52
2023-04-29T16:21:41.515Z,10.05
2023-04-29T16:24:05.681Z,9.85
2023-04-29T16:26:29.415Z,8.40
2023-04-29T16:28:53.207Z,10.38
2023-04-29T16:31:19.986Z,10.18
2023-04-29T16:33:43.634Z,11.75
2023-04-29T16:36:07.862Z,6.32
2023-04-29T16:38:31.996Z,7.05
2023-04-29T16:40:55.978Z,8.30
2023-04-29T16:43:19.685Z,7.78
2023-04-29T16:45:43.314Z,9.45
2023-04-29T16:48:08.546Z,8.43
2023-04-29T16:50:32.120Z,7.75
2023-04-29T16:52:55.676Z,8.32
2023-04-29T16:55:19.408Z,6.50
2023-04-29T16:57:43.059Z,7.00
2023-04-29T17:00:10.194Z,5.22
2023-04-29T17:02:33.854Z,7.63
2023-04-29T17:04:58.972Z,7.68
2023-04-29T17:07:22.676Z,6.53
2023-04-29T17:09:47.312Z,7.28
2023-04-29T17:12:11.013Z,5.30
2023-04-29T17:14:34.826Z,4.90
2023-04-29T17:16:58.420Z,4.32
2023-04-29T17:19:21.992Z,7.70
2023-04-29T17:21:47.315Z,5.70
2023-04-29T17:24:10.831Z,5.20
2023-04-29T17:26:34.504Z,6.43
2023-04-29T17:28:58.887Z,5.00
2023-04-29T17:31:25.519Z,6.82
2023-04-29T17:33:55.225Z,11.13
2023-04-29T17:36:18.791Z,7.82
2023-04-29T17:38:43.673Z,5.50
2023-04-29T17:41:07.315Z,8.40
2023-04-29T17:43:33.237Z,8.32
2023-04-29T17:45:59.858Z,5.32
2023-04-29T17:48:23.419Z,6.10
2023-04-29T17:50:47.318Z,9.63
2023-04-29T17:53:10.917Z,8.68
2023-04-29T17:55:35.912Z,6.43
2023-04-29T17:57:59.426Z,6.18
2023-04-29T18:00:23.721Z,5.97
2023-04-29T18:02:47.349Z,5.70
2023-04-29T18:05:11.533Z,8.65
2023-04-29T18:07:35.112Z,6.32
2023-04-29T18:09:58.873Z,5.95
2023-04-29T18:12:24.183Z,6.80
2023-04-29T18:14:48.797Z,9.57
2023-04-29T18:17:12.348Z,4.80
2023-04-29T18:19:36.079Z,3.65
2023-04-29T18:22:01.385Z,5.90
2023-04-29T18:24:25.655Z,4.03
2023-04-29T18:26:49.188Z,4.60
2023-04-29T18:29:14.139Z,6.30
2023-04-29T18:31:37.959Z,8.30
2023-04-29T18:34:01.673Z,6.72
2023-04-29T18:36:25.188Z,5.88
2023-04-29T18:38:49.031Z,3.53
2023-04-29T18:41:13.167Z,8.13
2023-04-29T18:43:36.921Z,4.97
2023-04-29T18:46:02.239Z,4.57
2023-04-29T18:48:27.692Z,4.38
2023-04-29T18:50:53.404Z,5.13
2023-04-29T18:53:16.990Z,5.47
2023-04-29T18:55:40.608Z,4.15
2023-04-29T18:58:04.334Z,6.07
2023-04-29T19:00:27.938Z,5.55
2023-04-29T19:02:52.916Z,4.07
2023-04-29T19:05:16.495Z,4.22
2023-04-29T19:07:40.176Z,6.30
2023-04-29T19:10:03.961Z,3.72
2023-04-29T19:12:27.656Z,4.97
2023-04-29T19:14:51.220Z,5.13
2023-04-29T19:17:14.812Z,8.13
2023-04-29T19:19:39.763Z,6.55
2023-04-29T19:22:05.334Z,6.85
2023-04-29T19:24:28.902Z,6.78
2023-04-29T19:26:52.479Z,8.05
2023-04-29T19:29:16.144Z,12.95
2023-04-29T19:31:39.807Z,9.88
2023-04-29T19:34:03.644Z,18.05
2023-04-29T19:36:28.657Z,12.88
2023-04-29T19:38:52.185Z,9.88
2023-04-29T19:41:15.952Z,12.10
2023-04-29T19:43:39.577Z,13.35
2023-04-29T19:46:03.193Z,11.60
2023-04-29T19:48:26.811Z,15.38
2023-04-29T19:50:50.515Z,14.27
2023-04-29T19:53:15.447Z,16.65
2023-04-29T19:55:40.217Z,21.02
2023-04-29T19:58:03.827Z,19.65
2023-04-29T20:00:27.536Z,17.48
2023-04-29T20:02:52.282Z,19.77
2023-04-29T20:05:16.395Z,14.50
2023-04-29T20:07:40.228Z,14.70
2023-04-29T20:10:06.100Z,16.23
2023-04-29T20:12:29.660Z,16.20
2023-04-29T20:14:53.315Z,15.07
2023-04-29T20:17:17.822Z,13.90
2023-04-29T20:19:41.554Z,15.55
2023-04-29T20:22:05.103Z,13.02
2023-04-29T20:24:28.718Z,13.75
2023-04-29T20:26:53.668Z,11.80
2023-04-29T20:29:17.224Z,13.75
2023-04-29T20:31:40.870Z,11.27
2023-04-29T20:34:04.498Z,14.07
2023-04-29T20:36:28.729Z,13.88
2023-04-29T20:38:52.688Z,14.57
2023-04-29T20:41:16.383Z,10.98
2023-04-29T20:43:41.348Z,10.85
2023-04-29T20:46:04.977Z,14.55
2023-04-29T20:48:28.789Z,9.02
2023-04-29T20:50:52.323Z,10.27
2023-04-29T20:53:16.920Z,8.15
2023-04-29T20:55:40.561Z,11.00
2023-04-29T20:58:04.122Z,12.00
2023-04-29T21:00:29.034Z,11.00
2023-04-29T21:02:52.709Z,10.13
2023-04-29T21:05:16.395Z,8.93
2023-04-29T21:07:39.987Z,10.25
2023-04-29T21:10:03.575Z,11.13
2023-04-29T21:12:27.221Z,9.95
2023-04-29T21:14:50.754Z,9.68
2023-04-29T21:17:16.392Z,11.55
2023-04-29T21:19:39.947Z,9.25
2023-04-29T21:22:03.530Z,9.57
2023-04-29T21:24:28.665Z,10.35
2023-04-29T21:26:52.324Z,10.88
2023-04-29T21:29:15.910Z,11.10
2023-04-29T21:31:39.581Z,9.77
2023-04-29T21:34:04.498Z,12.02
2023-04-29T21:36:28.131Z,11.85
2023-04-29T21:38:52.815Z,11.43
2023-04-29T21:41:22.711Z,12.40
2023-04-29T21:43:46.280Z,11.18
2023-04-29T21:46:09.898Z,12.02
2023-04-29T21:48:34.126Z,12.80
2023-04-29T21:51:00.204Z,11.45
2023-04-29T21:53:23.741Z,14.02
2023-04-29T21:55:47.348Z,16.45
2023-04-29T21:58:11.630Z,9.93
2023-04-29T22:00:36.605Z,10.93
2023-04-29T22:03:01.081Z,13.55
2023-04-29T22:05:24.840Z,11.52
2023-04-29T22:47:23.641Z,7.03
2023-04-29T22:49:47.593Z,6.05
2023-04-29T22:52:11.203Z,10.43
2023-04-29T23:13:32.059Z,11.13
2023-04-29T23:15:58.296Z,8.07
2023-04-29T23:18:21.929Z,8.25
2023-04-29T23:20:48.374Z,6.40
2023-04-29T23:23:11.941Z,7.57
2023-04-29T23:25:36.581Z,7.05
2023-04-29T23:28:00.133Z,11.45
2023-04-29T23:30:25.703Z,7.35
2023-04-29T23:32:49.324Z,10.47
2023-04-29T23:35:13.096Z,6.45
2023-04-29T23:55:24.554Z,7.70
2023-04-29T23:57:48.313Z,6.80
